Terminal Aerodrome Forecast
Issued by NWS

Home | Current Version | Previous Version | Graphics & Text | Print | Product List | Glossary On
Versions: 1 2 3 4 5 6 7 8 9 10 11 12 13 14 15
356
FTUS43 KBIS 231131
TAFDIK
TAF
KDIK 231131Z 2312/2412 10009KT P6SM SCT045 BKN150
     FM231500 12012KT P6SM VCTS BKN030CB BKN070
     FM231900 13014KT P6SM -SHRA VCTS BKN020CB BKN040
     FM240100 12008KT P6SM FEW060 SCT250
     FM240600 16009KT P6SM SCT200=

USA.gov is the U.S. government's official web portal to all federal, state and local government web resources and services.